Terminal Aerodrome Forecast
Issued by NWS Binghamton, NY

Home | Current Version | Previous Version | Text Only | Print | Product List | Glossary On
Versions: 1 2 3 4 5 6 7 8 9 10 11 12 13 14
204
FTUS41 KBGM 251738
TAFSYR
TAF
KSYR 251738Z 2518/2618 09007KT P6SM -SHRA OVC025
      TEMPO 2518/2522 4SM -SHRA BR OVC015
     FM252200 VRB04KT 4SM -SHRA BR OVC012
      TEMPO 2522/2601 2SM -SHRA BR OVC009
     FM260100 28008KT 4SM -SHRA BR OVC007
     FM260900 26010G17KT 5SM -SHRA BR OVC008
     FM261300 27012G20KT P6SM OVC012=

USA.gov is the U.S. government's official web portal to all federal, state and local government web resources and services.